sensor_id;sensor_type;location;lat;lon;timestamp;P1;durP1;ratioP1;P2;durP2;ratioP2
18076;SDS011;9165;45.714;11.362;2022-12-07T03:07:09;3.43;;;2.30;;
18076;SDS011;9165;45.714;11.362;2022-12-07T03:09:40;4.03;;;2.40;;
18076;SDS011;9165;45.714;11.362;2022-12-07T03:12:10;3.00;;;2.23;;
18076;SDS011;9165;45.714;11.362;2022-12-07T03:14:40;2.57;;;2.03;;
18076;SDS011;9165;45.714;11.362;2022-12-07T03:17:08;4.77;;;2.27;;
18076;SDS011;9165;45.714;11.362;2022-12-07T03:19:38;3.73;;;2.47;;
18076;SDS011;9165;45.714;11.362;2022-12-07T03:22:07;3.57;;;2.63;;
18076;SDS011;9165;45.714;11.362;2022-12-07T03:24:36;4.30;;;2.33;;
18076;SDS011;9165;45.714;11.362;2022-12-07T03:27:04;2.67;;;2.23;;
18076;SDS011;9165;45.714;11.362;2022-12-07T03:29:32;2.93;;;2.10;;
18076;SDS011;9165;45.714;11.362;2022-12-07T03:32:01;3.10;;;1.87;;
18076;SDS011;9165;45.714;11.362;2022-12-07T03:34:29;2.20;;;1.70;;
18076;SDS011;9165;45.714;11.362;2022-12-07T03:36:57;2.37;;;1.70;;
18076;SDS011;9165;45.714;11.362;2022-12-07T03:39:29;2.00;;;1.67;;
18076;SDS011;9165;45.714;11.362;2022-12-07T03:41:56;3.23;;;2.17;;
18076;SDS011;9165;45.714;11.362;2022-12-07T03:44:23;2.10;;;1.83;;
18076;SDS011;9165;45.714;11.362;2022-12-07T03:46:51;2.13;;;1.80;;
18076;SDS011;9165;45.714;11.362;2022-12-07T03:49:22;2.33;;;1.70;;
18076;SDS011;9165;45.714;11.362;2022-12-07T03:51:51;3.20;;;1.90;;
18076;SDS011;9165;45.714;11.362;2022-12-07T03:54:21;4.53;;;2.40;;
18076;SDS011;9165;45.714;11.362;2022-12-07T03:56:51;2.53;;;1.73;;
18076;SDS011;9165;45.714;11.362;2022-12-07T03:59:19;2.60;;;1.87;;
18076;SDS011;9165;45.714;11.362;2022-12-07T04:01:51;2.70;;;2.17;;
18076;SDS011;9165;45.714;11.362;2022-12-07T04:04:18;2.07;;;1.80;;
18076;SDS011;9165;45.714;11.362;2022-12-07T04:06:45;2.83;;;1.80;;
18076;SDS011;9165;45.714;11.362;2022-12-07T04:09:11;2.20;;;1.63;;
18076;SDS011;9165;45.714;11.362;2022-12-07T04:11:39;1.60;;;1.40;;
18076;SDS011;9165;45.714;11.362;2022-12-07T04:14:07;2.80;;;1.90;;
18076;SDS011;9165;45.714;11.362;2022-12-07T04:16:46;3.87;;;1.60;;
18076;SDS011;9165;45.714;11.362;2022-12-07T04:19:13;2.50;;;1.93;;
18076;SDS011;9165;45.714;11.362;2022-12-07T04:21:40;2.97;;;2.00;;
18076;SDS011;9165;45.714;11.362;2022-12-07T04:24:06;2.97;;;2.00;;
18076;SDS011;9165;45.714;11.362;2022-12-07T04:26:33;4.00;;;2.30;;
18076;SDS011;9165;45.714;11.362;2022-12-07T04:29:00;2.20;;;2.00;;
18076;SDS011;9165;45.714;11.362;2022-12-07T04:31:28;2.37;;;2.17;;
18076;SDS011;9165;45.714;11.362;2022-12-07T04:33:55;4.17;;;2.27;;
18076;SDS011;9165;45.714;11.362;2022-12-07T04:36:22;2.97;;;2.23;;
18076;SDS011;9165;45.714;11.362;2022-12-07T04:38:48;4.53;;;2.40;;
18076;SDS011;9165;45.714;11.362;2022-12-07T04:41:15;4.97;;;2.67;;
18076;SDS011;9165;45.714;11.362;2022-12-07T04:43:42;4.57;;;2.77;;
18076;SDS011;9165;45.714;11.362;2022-12-07T04:46:08;3.00;;;2.33;;
18076;SDS011;9165;45.714;11.362;2022-12-07T04:48:36;4.47;;;2.50;;
18076;SDS011;9165;45.714;11.362;2022-12-07T04:51:03;3.27;;;2.10;;
18076;SDS011;9165;45.714;11.362;2022-12-07T04:53:30;3.30;;;2.00;;
18076;SDS011;9165;45.714;11.362;2022-12-07T04:55:56;4.87;;;1.90;;
18076;SDS011;9165;45.714;11.362;2022-12-07T04:58:23;2.57;;;1.87;;
18076;SDS011;9165;45.714;11.362;2022-12-07T05:00:50;2.57;;;1.90;;
18076;SDS011;9165;45.714;11.362;2022-12-07T05:03:19;2.43;;;2.03;;
18076;SDS011;9165;45.714;11.362;2022-12-07T05:05:47;4.23;;;2.10;;
18076;SDS011;9165;45.714;11.362;2022-12-07T05:08:14;2.87;;;1.90;;
18076;SDS011;9165;45.714;11.362;2022-12-07T05:10:41;2.60;;;2.20;;
18076;SDS011;9165;45.714;11.362;2022-12-07T05:13:08;3.93;;;2.40;;
18076;SDS011;9165;45.714;11.362;2022-12-07T05:15:35;4.27;;;2.10;;
18076;SDS011;9165;45.714;11.362;2022-12-07T05:18:02;3.60;;;2.37;;
18076;SDS011;9165;45.714;11.362;2022-12-07T05:20:29;4.30;;;2.23;;
18076;SDS011;9165;45.714;11.362;2022-12-07T05:22:57;4.10;;;2.47;;
18076;SDS011;9165;45.714;11.362;2022-12-07T05:25:24;3.03;;;2.30;;
18076;SDS011;9165;45.714;11.362;2022-12-07T05:27:50;3.03;;;2.20;;
18076;SDS011;9165;45.714;11.362;2022-12-07T05:30:17;3.73;;;2.57;;
18076;SDS011;9165;45.714;11.362;2022-12-07T05:32:44;2.60;;;1.90;;
18076;SDS011;9165;45.714;11.362;2022-12-07T05:35:10;4.07;;;2.53;;
18076;SDS011;9165;45.714;11.362;2022-12-07T05:37:37;2.27;;;2.03;;
18076;SDS011;9165;45.714;11.362;2022-12-07T05:40:05;5.50;;;2.50;;
18076;SDS011;9165;45.714;11.362;2022-12-07T05:42:32;4.87;;;2.43;;
18076;SDS011;9165;45.714;11.362;2022-12-07T05:44:59;5.20;;;2.37;;
18076;SDS011;9165;45.714;11.362;2022-12-07T05:47:26;3.93;;;2.33;;
18076;SDS011;9165;45.714;11.362;2022-12-07T05:49:53;5.30;;;2.93;;
18076;SDS011;9165;45.714;11.362;2022-12-07T05:52:19;4.57;;;2.67;;
18076;SDS011;9165;45.714;11.362;2022-12-07T05:54:46;3.50;;;2.30;;
18076;SDS011;9165;45.714;11.362;2022-12-07T05:57:14;4.60;;;2.70;;
18076;SDS011;9165;45.714;11.362;2022-12-07T05:59:41;4.00;;;2.63;;
18076;SDS011;9165;45.714;11.362;2022-12-07T06:02:08;4.97;;;3.17;;
18076;SDS011;9165;45.714;11.362;2022-12-07T06:04:35;5.97;;;3.00;;
18076;SDS011;9165;45.714;11.362;2022-12-07T06:07:02;4.40;;;3.23;;
18076;SDS011;9165;45.714;11.362;2022-12-07T06:09:29;5.63;;;3.30;;
18076;SDS011;9165;45.714;11.362;2022-12-07T06:11:57;5.20;;;3.30;;
18076;SDS011;9165;45.714;11.362;2022-12-07T06:14:42;5.10;;;2.93;;
18076;SDS011;9165;45.714;11.362;2022-12-07T06:17:09;3.60;;;2.70;;
18076;SDS011;9165;45.714;11.362;2022-12-07T06:19:37;3.77;;;2.60;;
18076;SDS011;9165;45.714;11.362;2022-12-07T06:22:03;3.90;;;2.80;;
18076;SDS011;9165;45.714;11.362;2022-12-07T06:24:30;4.77;;;3.07;;
18076;SDS011;9165;45.714;11.362;2022-12-07T06:26:57;3.97;;;2.70;;
18076;SDS011;9165;45.714;11.362;2022-12-07T06:29:24;4.00;;;2.90;;
18076;SDS011;9165;45.714;11.362;2022-12-07T06:31:52;4.10;;;2.90;;
18076;SDS011;9165;45.714;11.362;2022-12-07T06:34:20;4.53;;;3.30;;
18076;SDS011;9165;45.714;11.362;2022-12-07T06:36:47;3.23;;;2.50;;
18076;SDS011;9165;45.714;11.362;2022-12-07T06:39:16;4.33;;;3.10;;
18076;SDS011;9165;45.714;11.362;2022-12-07T06:41:43;4.03;;;2.90;;
18076;SDS011;9165;45.714;11.362;2022-12-07T06:44:10;4.90;;;3.27;;
18076;SDS011;9165;45.714;11.362;2022-12-07T06:46:36;5.73;;;3.10;;
18076;SDS011;9165;45.714;11.362;2022-12-07T06:49:05;4.43;;;3.43;;
18076;SDS011;9165;45.714;11.362;2022-12-07T06:51:32;5.07;;;3.90;;
18076;SDS011;9165;45.714;11.362;2022-12-07T06:54:00;5.20;;;3.40;;
18076;SDS011;9165;45.714;11.362;2022-12-07T06:56:27;7.43;;;3.27;;
18076;SDS011;9165;45.714;11.362;2022-12-07T06:58:53;7.33;;;3.17;;
18076;SDS011;9165;45.714;11.362;2022-12-07T07:01:20;5.57;;;3.37;;
18076;SDS011;9165;45.714;11.362;2022-12-07T07:03:47;3.70;;;3.10;;
18076;SDS011;9165;45.714;11.362;2022-12-07T07:06:15;7.77;;;3.47;;
18076;SDS011;9165;45.714;11.362;2022-12-07T07:08:42;5.00;;;3.20;;
18076;SDS011;9165;45.714;11.362;2022-12-07T07:11:09;4.47;;;3.30;;
18076;SDS011;9165;45.714;11.362;2022-12-07T07:13:35;6.13;;;3.83;;
18076;SDS011;9165;45.714;11.362;2022-12-07T07:16:02;12.90;;;3.50;;
18076;SDS011;9165;45.714;11.362;2022-12-07T07:18:29;7.77;;;3.93;;
18076;SDS011;9165;45.714;11.362;2022-12-07T07:20:56;4.70;;;3.40;;
18076;SDS011;9165;45.714;11.362;2022-12-07T07:23:24;10.30;;;3.33;;
18076;SDS011;9165;45.714;11.362;2022-12-07T07:25:51;4.23;;;3.67;;
18076;SDS011;9165;45.714;11.362;2022-12-07T07:28:18;7.03;;;3.67;;
18076;SDS011;9165;45.714;11.362;2022-12-07T07:30:45;6.97;;;3.20;;
18076;SDS011;9165;45.714;11.362;2022-12-07T07:33:12;8.23;;;3.90;;
18076;SDS011;9165;45.714;11.362;2022-12-07T07:35:38;4.60;;;3.50;;
18076;SDS011;9165;45.714;11.362;2022-12-07T07:38:05;5.47;;;3.37;;
18076;SDS011;9165;45.714;11.362;2022-12-07T07:40:33;3.30;;;2.80;;
18076;SDS011;9165;45.714;11.362;2022-12-07T07:43:00;5.07;;;3.27;;
18076;SDS011;9165;45.714;11.362;2022-12-07T07:45:27;3.73;;;3.10;;
18076;SDS011;9165;45.714;11.362;2022-12-07T07:47:56;6.53;;;3.23;;
18076;SDS011;9165;45.714;11.362;2022-12-07T07:50:22;5.30;;;3.17;;
18076;SDS011;9165;45.714;11.362;2022-12-07T07:52:49;5.03;;;3.37;;
18076;SDS011;9165;45.714;11.362;2022-12-07T07:55:16;4.87;;;3.60;;
18076;SDS011;9165;45.714;11.362;2022-12-07T07:57:44;4.10;;;3.03;;
18076;SDS011;9165;45.714;11.362;2022-12-07T08:00:11;5.90;;;2.90;;
18076;SDS011;9165;45.714;11.362;2022-12-07T08:02:38;4.70;;;2.70;;
18076;SDS011;9165;45.714;11.362;2022-12-07T08:05:05;4.00;;;2.63;;
18076;SDS011;9165;45.714;11.362;2022-12-07T08:07:32;4.87;;;3.60;;
18076;SDS011;9165;45.714;11.362;2022-12-07T08:17:19;8.47;;;4.03;;
18076;SDS011;9165;45.714;11.362;2022-12-07T08:19:46;6.27;;;3.77;;
18076;SDS011;9165;45.714;11.362;2022-12-07T08:22:13;5.20;;;3.13;;
18076;SDS011;9165;45.714;11.362;2022-12-07T08:24:39;10.10;;;3.67;;
18076;SDS011;9165;45.714;11.362;2022-12-07T08:27:06;3.97;;;2.80;;
18076;SDS011;9165;45.714;11.362;2022-12-07T08:29:33;6.70;;;3.43;;
18076;SDS011;9165;45.714;11.362;2022-12-07T08:31:59;5.47;;;3.77;;
18076;SDS011;9165;45.714;11.362;2022-12-07T08:34:28;6.07;;;3.40;;
18076;SDS011;9165;45.714;11.362;2022-12-07T08:36:55;5.03;;;3.70;;
18076;SDS011;9165;45.714;11.362;2022-12-07T08:46:41;9.00;;;4.83;;
18076;SDS011;9165;45.714;11.362;2022-12-07T08:49:10;9.10;;;4.23;;
18076;SDS011;9165;45.714;11.362;2022-12-07T08:51:39;8.70;;;4.90;;
18076;SDS011;9165;45.714;11.362;2022-12-07T08:54:07;7.53;;;5.27;;
18076;SDS011;9165;45.714;11.362;2022-12-07T08:56:35;8.63;;;5.07;;
18076;SDS011;9165;45.714;11.362;2022-12-07T08:59:02;5.80;;;4.17;;
18076;SDS011;9165;45.714;11.362;2022-12-07T09:01:29;8.77;;;4.50;;
18076;SDS011;9165;45.714;11.362;2022-12-07T09:03:55;9.23;;;4.90;;
18076;SDS011;9165;45.714;11.362;2022-12-07T09:06:22;8.33;;;5.47;;
18076;SDS011;9165;45.714;11.362;2022-12-07T09:08:51;6.37;;;4.40;;
18076;SDS011;9165;45.714;11.362;2022-12-07T09:11:19;9.00;;;4.73;;
18076;SDS011;9165;45.714;11.362;2022-12-07T09:13:46;8.03;;;4.57;;
18076;SDS011;9165;45.714;11.362;2022-12-07T09:16:13;7.63;;;5.00;;
18076;SDS011;9165;45.714;11.362;2022-12-07T09:18:39;9.47;;;5.53;;
18076;SDS011;9165;45.714;11.362;2022-12-07T09:21:07;9.93;;;5.83;;
18076;SDS011;9165;45.714;11.362;2022-12-07T09:23:33;8.97;;;5.00;;
18076;SDS011;9165;45.714;11.362;2022-12-07T09:26:02;8.83;;;5.60;;
18076;SDS011;9165;45.714;11.362;2022-12-07T09:28:30;7.37;;;4.97;;
18076;SDS011;9165;45.714;11.362;2022-12-07T09:30:56;8.67;;;5.23;;
18076;SDS011;9165;45.714;11.362;2022-12-07T09:33:23;8.03;;;5.00;;
18076;SDS011;9165;45.714;11.362;2022-12-07T09:35:50;9.07;;;5.00;;
18076;SDS011;9165;45.714;11.362;2022-12-07T09:38:17;7.30;;;5.53;;
18076;SDS011;9165;45.714;11.362;2022-12-07T09:40:44;7.43;;;4.80;;
18076;SDS011;9165;45.714;11.362;2022-12-07T09:43:13;7.27;;;5.00;;
18076;SDS011;9165;45.714;11.362;2022-12-07T09:45:42;9.30;;;5.10;;
18076;SDS011;9165;45.714;11.362;2022-12-07T09:48:12;8.77;;;4.70;;
18076;SDS011;9165;45.714;11.362;2022-12-07T09:50:41;8.40;;;5.43;;
18076;SDS011;9165;45.714;11.362;2022-12-07T09:53:08;7.33;;;5.07;;
18076;SDS011;9165;45.714;11.362;2022-12-07T09:55:36;6.30;;;4.80;;
18076;SDS011;9165;45.714;11.362;2022-12-07T09:58:04;8.83;;;4.73;;
18076;SDS011;9165;45.714;11.362;2022-12-07T10:00:32;6.37;;;3.97;;
18076;SDS011;9165;45.714;11.362;2022-12-07T10:02:59;8.70;;;4.07;;
18076;SDS011;9165;45.714;11.362;2022-12-07T10:05:27;4.40;;;3.43;;
18076;SDS011;9165;45.714;11.362;2022-12-07T10:07:55;6.03;;;3.70;;
18076;SDS011;9165;45.714;11.362;2022-12-07T10:10:23;6.43;;;4.13;;
18076;SDS011;9165;45.714;11.362;2022-12-07T10:12:54;5.07;;;3.90;;
18076;SDS011;9165;45.714;11.362;2022-12-07T10:15:21;23.20;;;5.60;;
18076;SDS011;9165;45.714;11.362;2022-12-07T10:17:49;6.10;;;4.00;;
18076;SDS011;9165;45.714;11.362;2022-12-07T10:20:22;5.67;;;4.10;;
18076;SDS011;9165;45.714;11.362;2022-12-07T10:22:53;4.30;;;3.60;;
18076;SDS011;9165;45.714;11.362;2022-12-07T10:25:21;4.93;;;3.80;;
18076;SDS011;9165;45.714;11.362;2022-12-07T10:27:56;5.33;;;3.80;;
18076;SDS011;9165;45.714;11.362;2022-12-07T10:30:23;4.47;;;3.40;;
18076;SDS011;9165;45.714;11.362;2022-12-07T10:32:51;4.30;;;3.87;;
18076;SDS011;9165;45.714;11.362;2022-12-07T10:35:20;4.80;;;3.70;;
18076;SDS011;9165;45.714;11.362;2022-12-07T10:37:48;6.17;;;3.50;;
18076;SDS011;9165;45.714;11.362;2022-12-07T10:40:31;5.93;;;4.57;;
18076;SDS011;9165;45.714;11.362;2022-12-07T10:43:15;5.43;;;4.30;;
18076;SDS011;9165;45.714;11.362;2022-12-07T10:45:50;5.03;;;3.97;;
18076;SDS011;9165;45.714;11.362;2022-12-07T10:48:25;5.53;;;4.53;;
18076;SDS011;9165;45.714;11.362;2022-12-07T10:50:57;5.90;;;3.83;;
18076;SDS011;9165;45.714;11.362;2022-12-07T10:53:32;5.57;;;3.90;;
18076;SDS011;9165;45.714;11.362;2022-12-07T10:56:06;5.87;;;3.63;;
18076;SDS011;9165;45.714;11.362;2022-12-07T10:58:43;7.27;;;4.30;;
18076;SDS011;9165;45.714;11.362;2022-12-07T11:01:17;8.17;;;4.27;;
18076;SDS011;9165;45.714;11.362;2022-12-07T11:03:55;5.83;;;3.57;;
18076;SDS011;9165;45.714;11.362;2022-12-07T11:06:31;5.43;;;4.10;;
18076;SDS011;9165;45.714;11.362;2022-12-07T11:09:07;7.33;;;4.13;;
18076;SDS011;9165;45.714;11.362;2022-12-07T11:11:42;6.07;;;3.83;;
18076;SDS011;9165;45.714;11.362;2022-12-07T11:14:14;26.80;;;13.87;;
18076;SDS011;9165;45.714;11.362;2022-12-07T11:16:48;7.10;;;4.70;;
18076;SDS011;9165;45.714;11.362;2022-12-07T11:19:21;5.30;;;4.07;;
18076;SDS011;9165;45.714;11.362;2022-12-07T11:21:53;2.90;;;2.60;;
18076;SDS011;9165;45.714;11.362;2022-12-07T11:24:24;2.63;;;2.40;;
18076;SDS011;9165;45.714;11.362;2022-12-07T11:32:19;18.17;;;8.30;;
18076;SDS011;9165;45.714;11.362;2022-12-07T11:34:51;4.57;;;3.53;;
18076;SDS011;9165;45.714;11.362;2022-12-07T11:37:25;3.97;;;3.27;;
18076;SDS011;9165;45.714;11.362;2022-12-07T11:39:54;3.83;;;3.43;;
18076;SDS011;9165;45.714;11.362;2022-12-07T11:42:22;7.13;;;3.50;;
18076;SDS011;9165;45.714;11.362;2022-12-07T11:44:50;4.17;;;2.93;;
18076;SDS011;9165;45.714;11.362;2022-12-07T11:47:20;6.90;;;2.97;;
18076;SDS011;9165;45.714;11.362;2022-12-07T11:49:50;2.87;;;2.17;;
18076;SDS011;9165;45.714;11.362;2022-12-07T11:52:27;3.30;;;2.50;;
18076;SDS011;9165;45.714;11.362;2022-12-07T11:54:57;2.60;;;1.90;;
18076;SDS011;9165;45.714;11.362;2022-12-07T11:57:25;3.90;;;2.47;;
18076;SDS011;9165;45.714;11.362;2022-12-07T11:59:56;2.80;;;2.03;;
18076;SDS011;9165;45.714;11.362;2022-12-07T12:02:26;3.97;;;2.67;;
18076;SDS011;9165;45.714;11.362;2022-12-07T12:04:58;6.23;;;3.00;;
18076;SDS011;9165;45.714;11.362;2022-12-07T12:07:28;3.30;;;3.00;;
18076;SDS011;9165;45.714;11.362;2022-12-07T12:09:55;6.77;;;4.20;;
18076;SDS011;9165;45.714;11.362;2022-12-07T12:12:33;20.93;;;4.23;;
18076;SDS011;9165;45.714;11.362;2022-12-07T12:17:47;6.33;;;4.23;;
18076;SDS011;9165;45.714;11.362;2022-12-07T12:20:19;6.43;;;4.10;;
18076;SDS011;9165;45.714;11.362;2022-12-07T12:22:48;4.93;;;3.47;;
18076;SDS011;9165;45.714;11.362;2022-12-07T12:25:19;5.50;;;3.53;;
18076;SDS011;9165;45.714;11.362;2022-12-07T12:27:47;4.53;;;3.23;;
18076;SDS011;9165;45.714;11.362;2022-12-07T12:30:24;5.47;;;3.23;;
18076;SDS011;9165;45.714;11.362;2022-12-07T12:32:51;6.47;;;3.90;;
18076;SDS011;9165;45.714;11.362;2022-12-07T12:35:22;7.20;;;3.93;;
18076;SDS011;9165;45.714;11.362;2022-12-07T12:37:54;5.97;;;4.20;;
18076;SDS011;9165;45.714;11.362;2022-12-07T12:48:50;5.53;;;3.87;;
18076;SDS011;9165;45.714;11.362;2022-12-07T12:51:35;6.37;;;4.40;;
18076;SDS011;9165;45.714;11.362;2022-12-07T12:54:05;6.70;;;5.13;;
18076;SDS011;9165;45.714;11.362;2022-12-07T12:56:35;8.03;;;4.03;;
18076;SDS011;9165;45.714;11.362;2022-12-07T12:59:25;5.97;;;4.07;;
18076;SDS011;9165;45.714;11.362;2022-12-07T13:01:53;12.03;;;5.33;;
18076;SDS011;9165;45.714;11.362;2022-12-07T13:07:02;5.80;;;4.27;;
18076;SDS011;9165;45.714;11.362;2022-12-07T13:09:31;6.13;;;3.73;;
18076;SDS011;9165;45.714;11.362;2022-12-07T13:12:00;6.97;;;4.70;;
18076;SDS011;9165;45.714;11.362;2022-12-07T13:14:40;5.93;;;4.37;;
18076;SDS011;9165;45.714;11.362;2022-12-07T13:17:08;9.37;;;5.57;;
18076;SDS011;9165;45.714;11.362;2022-12-07T13:22:36;11.97;;;6.43;;
18076;SDS011;9165;45.714;11.362;2022-12-07T13:25:07;15.50;;;5.60;;
18076;SDS011;9165;45.714;11.362;2022-12-07T13:27:35;9.70;;;4.27;;
18076;SDS011;9165;45.714;11.362;2022-12-07T13:30:06;7.97;;;3.80;;
18076;SDS011;9165;45.714;11.362;2022-12-07T13:32:34;11.60;;;4.97;;
18076;SDS011;9165;45.714;11.362;2022-12-07T13:35:01;9.40;;;6.13;;
18076;SDS011;9165;45.714;11.362;2022-12-07T13:37:47;6.10;;;4.73;;
18076;SDS011;9165;45.714;11.362;2022-12-07T13:40:17;9.07;;;4.47;;
18076;SDS011;9165;45.714;11.362;2022-12-07T13:42:46;7.17;;;4.73;;
18076;SDS011;9165;45.714;11.362;2022-12-07T13:45:20;5.77;;;4.40;;
18076;SDS011;9165;45.714;11.362;2022-12-07T13:47:48;10.90;;;5.17;;
18076;SDS011;9165;45.714;11.362;2022-12-07T13:50:22;6.03;;;4.17;;
18076;SDS011;9165;45.714;11.362;2022-12-07T13:52:48;7.07;;;4.70;;
18076;SDS011;9165;45.714;11.362;2022-12-07T13:55:17;10.37;;;5.10;;
18076;SDS011;9165;45.714;11.362;2022-12-07T13:57:44;7.03;;;4.80;;
18076;SDS011;9165;45.714;11.362;2022-12-07T14:00:14;10.23;;;5.63;;
18076;SDS011;9165;45.714;11.362;2022-12-07T14:02:53;6.43;;;4.67;;
18076;SDS011;9165;45.714;11.362;2022-12-07T14:05:23;9.67;;;5.77;;
18076;SDS011;9165;45.714;11.362;2022-12-07T14:07:53;6.43;;;4.63;;
18076;SDS011;9165;45.714;11.362;2022-12-07T14:10:25;7.27;;;5.23;;
18076;SDS011;9165;45.714;11.362;2022-12-07T14:12:53;8.70;;;4.93;;
18076;SDS011;9165;45.714;11.362;2022-12-07T14:15:20;9.37;;;4.73;;
18076;SDS011;9165;45.714;11.362;2022-12-07T14:17:51;7.57;;;4.13;;
18076;SDS011;9165;45.714;11.362;2022-12-07T14:20:28;7.87;;;4.97;;
18076;SDS011;9165;45.714;11.362;2022-12-07T14:22:55;5.97;;;4.57;;
18076;SDS011;9165;45.714;11.362;2022-12-07T14:25:23;13.13;;;7.43;;
18076;SDS011;9165;45.714;11.362;2022-12-07T14:27:56;13.00;;;5.87;;
18076;SDS011;9165;45.714;11.362;2022-12-07T14:30:24;8.57;;;5.70;;
18076;SDS011;9165;45.714;11.362;2022-12-07T14:32:52;7.20;;;5.60;;
18076;SDS011;9165;45.714;11.362;2022-12-07T14:35:19;7.67;;;4.73;;
18076;SDS011;9165;45.714;11.362;2022-12-07T14:37:47;8.63;;;5.67;;
18076;SDS011;9165;45.714;11.362;2022-12-07T14:40:17;9.83;;;5.90;;
18076;SDS011;9165;45.714;11.362;2022-12-07T14:42:43;9.43;;;6.67;;
18076;SDS011;9165;45.714;11.362;2022-12-07T14:45:14;17.10;;;10.20;;
18076;SDS011;9165;45.714;11.362;2022-12-07T14:47:42;38.87;;;17.30;;
18076;SDS011;9165;45.714;11.362;2022-12-07T14:50:10;38.00;;;22.90;;
18076;SDS011;9165;45.714;11.362;2022-12-07T14:52:41;18.03;;;9.37;;
18076;SDS011;9165;45.714;11.362;2022-12-07T14:55:12;15.27;;;8.03;;
18076;SDS011;9165;45.714;11.362;2022-12-07T14:57:39;15.27;;;9.63;;
18076;SDS011;9165;45.714;11.362;2022-12-07T15:00:09;10.77;;;8.73;;
18076;SDS011;9165;45.714;11.362;2022-12-07T15:02:39;13.90;;;7.40;;
18076;SDS011;9165;45.714;11.362;2022-12-07T15:05:05;17.67;;;8.10;;
18076;SDS011;9165;45.714;11.362;2022-12-07T15:07:32;18.20;;;8.40;;
18076;SDS011;9165;45.714;11.362;2022-12-07T15:09:59;14.27;;;8.77;;
18076;SDS011;9165;45.714;11.362;2022-12-07T15:12:26;13.00;;;8.27;;
18076;SDS011;9165;45.714;11.362;2022-12-07T15:14:53;12.80;;;8.13;;
18076;SDS011;9165;45.714;11.362;2022-12-07T15:17:20;17.53;;;8.90;;
18076;SDS011;9165;45.714;11.362;2022-12-07T15:19:48;17.17;;;9.77;;
18076;SDS011;9165;45.714;11.362;2022-12-07T15:22:15;18.03;;;10.50;;
18076;SDS011;9165;45.714;11.362;2022-12-07T15:24:41;19.20;;;10.33;;
18076;SDS011;9165;45.714;11.362;2022-12-07T15:27:08;16.40;;;9.90;;
18076;SDS011;9165;45.714;11.362;2022-12-07T15:29:34;19.13;;;10.27;;
18076;SDS011;9165;45.714;11.362;2022-12-07T15:32:01;16.30;;;9.33;;
18076;SDS011;9165;45.714;11.362;2022-12-07T15:34:28;24.00;;;11.47;;
18076;SDS011;9165;45.714;11.362;2022-12-07T15:36:57;21.33;;;12.90;;
18076;SDS011;9165;45.714;11.362;2022-12-07T15:39:24;23.53;;;12.70;;
18076;SDS011;9165;45.714;11.362;2022-12-07T15:41:51;16.50;;;10.23;;
18076;SDS011;9165;45.714;11.362;2022-12-07T15:44:17;17.30;;;9.50;;
18076;SDS011;9165;45.714;11.362;2022-12-07T15:47:01;14.37;;;8.83;;
18076;SDS011;9165;45.714;11.362;2022-12-07T15:49:28;15.20;;;8.80;;
18076;SDS011;9165;45.714;11.362;2022-12-07T15:51:54;14.17;;;8.73;;
18076;SDS011;9165;45.714;11.362;2022-12-07T15:54:24;16.87;;;9.17;;
18076;SDS011;9165;45.714;11.362;2022-12-07T15:56:51;13.13;;;8.60;;
18076;SDS011;9165;45.714;11.362;2022-12-07T15:59:17;16.83;;;9.53;;
18076;SDS011;9165;45.714;11.362;2022-12-07T16:01:44;17.53;;;10.00;;
18076;SDS011;9165;45.714;11.362;2022-12-07T16:04:11;13.50;;;9.40;;
18076;SDS011;9165;45.714;11.362;2022-12-07T16:06:37;42.13;;;11.00;;
18076;SDS011;9165;45.714;11.362;2022-12-07T16:09:04;15.00;;;8.77;;
18076;SDS011;9165;45.714;11.362;2022-12-07T16:11:33;15.57;;;8.53;;
18076;SDS011;9165;45.714;11.362;2022-12-07T16:13:59;12.40;;;8.40;;
18076;SDS011;9165;45.714;11.362;2022-12-07T16:16:26;12.13;;;7.43;;
18076;SDS011;9165;45.714;11.362;2022-12-07T16:18:53;12.37;;;7.93;;
18076;SDS011;9165;45.714;11.362;2022-12-07T16:21:20;14.10;;;7.77;;
18076;SDS011;9165;45.714;11.362;2022-12-07T16:23:47;12.77;;;8.63;;
18076;SDS011;9165;45.714;11.362;2022-12-07T16:26:14;12.63;;;8.27;;
18076;SDS011;9165;45.714;11.362;2022-12-07T16:28:42;9.50;;;7.37;;
18076;SDS011;9165;45.714;11.362;2022-12-07T16:31:10;17.90;;;8.57;;
18076;SDS011;9165;45.714;11.362;2022-12-07T16:33:37;15.30;;;8.07;;
18076;SDS011;9165;45.714;11.362;2022-12-07T16:36:05;20.90;;;9.63;;
18076;SDS011;9165;45.714;11.362;2022-12-07T16:38:32;15.57;;;9.60;;
18076;SDS011;9165;45.714;11.362;2022-12-07T16:40:58;17.60;;;9.83;;
18076;SDS011;9165;45.714;11.362;2022-12-07T16:43:25;12.33;;;8.67;;
18076;SDS011;9165;45.714;11.362;2022-12-07T16:45:53;16.70;;;10.03;;
18076;SDS011;9165;45.714;11.362;2022-12-07T16:48:20;21.37;;;9.47;;
18076;SDS011;9165;45.714;11.362;2022-12-07T16:50:46;16.07;;;9.53;;
18076;SDS011;9165;45.714;11.362;2022-12-07T16:53:13;13.87;;;8.07;;
18076;SDS011;9165;45.714;11.362;2022-12-07T16:55:41;14.77;;;7.33;;
18076;SDS011;9165;45.714;11.362;2022-12-07T16:58:08;10.07;;;7.67;;
18076;SDS011;9165;45.714;11.362;2022-12-07T17:00:35;14.30;;;8.47;;
18076;SDS011;9165;45.714;11.362;2022-12-07T17:03:04;10.87;;;7.70;;
18076;SDS011;9165;45.714;11.362;2022-12-07T17:05:30;20.40;;;9.60;;
18076;SDS011;9165;45.714;11.362;2022-12-07T17:07:58;15.30;;;8.30;;
18076;SDS011;9165;45.714;11.362;2022-12-07T17:10:25;14.90;;;9.77;;
18076;SDS011;9165;45.714;11.362;2022-12-07T17:12:52;14.37;;;9.17;;
18076;SDS011;9165;45.714;11.362;2022-12-07T17:15:18;23.63;;;10.47;;
18076;SDS011;9165;45.714;11.362;2022-12-07T17:17:46;18.30;;;10.73;;
18076;SDS011;9165;45.714;11.362;2022-12-07T17:20:18;14.73;;;9.97;;
18076;SDS011;9165;45.714;11.362;2022-12-07T17:22:46;15.30;;;9.03;;
18076;SDS011;9165;45.714;11.362;2022-12-07T17:25:13;14.63;;;8.80;;
18076;SDS011;9165;45.714;11.362;2022-12-07T17:27:40;12.70;;;9.00;;
18076;SDS011;9165;45.714;11.362;2022-12-07T17:30:07;20.43;;;9.07;;
18076;SDS011;9165;45.714;11.362;2022-12-07T17:32:34;18.77;;;8.90;;
18076;SDS011;9165;45.714;11.362;2022-12-07T17:35:01;23.63;;;9.73;;
18076;SDS011;9165;45.714;11.362;2022-12-07T17:37:29;15.50;;;9.50;;
18076;SDS011;9165;45.714;11.362;2022-12-07T17:39:56;17.17;;;9.77;;
18076;SDS011;9165;45.714;11.362;2022-12-07T17:42:22;20.20;;;10.30;;
18076;SDS011;9165;45.714;11.362;2022-12-07T17:45:06;17.87;;;10.07;;
18076;SDS011;9165;45.714;11.362;2022-12-07T17:47:33;15.33;;;8.70;;
18076;SDS011;9165;45.714;11.362;2022-12-07T17:50:02;13.77;;;8.80;;
18076;SDS011;9165;45.714;11.362;2022-12-07T17:52:30;12.70;;;8.27;;
18076;SDS011;9165;45.714;11.362;2022-12-07T17:55:14;14.70;;;8.23;;
18076;SDS011;9165;45.714;11.362;2022-12-07T17:57:41;11.53;;;7.23;;
18076;SDS011;9165;45.714;11.362;2022-12-07T18:00:08;10.37;;;6.73;;
18076;SDS011;9165;45.714;11.362;2022-12-07T18:02:35;11.17;;;7.30;;
18076;SDS011;9165;45.714;11.362;2022-12-07T18:05:02;14.83;;;7.33;;
18076;SDS011;9165;45.714;11.362;2022-12-07T18:07:31;31.00;;;16.00;;
18076;SDS011;9165;45.714;11.362;2022-12-07T18:09:57;15.13;;;9.20;;
18076;SDS011;9165;45.714;11.362;2022-12-07T18:12:24;14.73;;;9.93;;
18076;SDS011;9165;45.714;11.362;2022-12-07T18:14:50;13.27;;;8.23;;
18076;SDS011;9165;45.714;11.362;2022-12-07T18:17:19;13.37;;;8.33;;
18076;SDS011;9165;45.714;11.362;2022-12-07T18:19:45;10.20;;;6.77;;
18076;SDS011;9165;45.714;11.362;2022-12-07T18:22:13;10.57;;;6.77;;
18076;SDS011;9165;45.714;11.362;2022-12-07T18:24:42;13.40;;;8.40;;
18076;SDS011;9165;45.714;11.362;2022-12-07T18:27:09;12.07;;;7.63;;
18076;SDS011;9165;45.714;11.362;2022-12-07T18:29:36;15.17;;;7.83;;
18076;SDS011;9165;45.714;11.362;2022-12-07T18:32:03;10.87;;;6.67;;
18076;SDS011;9165;45.714;11.362;2022-12-07T18:34:30;7.40;;;5.37;;